This is the latest recevied weather packets stored in our database for station/object N5BTB-10. If no packets are shown the sender has not sent any weather packets the latest 10 day(s).
| Time | Temp. | Humidity | Pressure | Rain* | Wind** | Luminosity | Snow |
|---|---|---|---|---|---|---|---|
| 1777899605 | 10.56° C | 88% | - | 0 mm | - | - | - |
| 1777896005 | 11.11° C | 84% | - | 0 mm | - | - | - |
| 1777892405 | 12.22° C | 78% | - | 0 mm | - | - | - |
| 1777888805 | 14.44° C | 71% | - | 0 mm | - | - | - |
| 1777885205 | 15.56° C | 71% | - | 0 mm | - | - | - |
| 1777881605 | 17.22° C | 69% | - | 0 mm | - | - | - |
| 1777878005 | 19.44° C | 54% | - | 0 mm | - | - | - |
| 1777874405 | 20.56° C | 52% | - | 0 mm | - | - | - |
| 1777870805 | 21.11° C | 48% | - | 0 mm | - | - | - |
| 1777867205 | 22.78° C | 44% | - | 0 mm | - | - | - |
| 1777863605 | 25.56° C | 38% | - | 0 mm | - | - | - |
| 1777860005 | 27.22° C | 34% | - | 0 mm | - | - | - |
| 1777856405 | 28.89° C | 33% | - | 0 mm | - | - | - |
| 1777852806 | 31.11° C | 30% | - | 0 mm | - | - | - |
| 1777849206 | 35.56° C | 25% | - | 0 mm | - | - | - |
| 1777845606 | 35.56° C | 24% | - | 0 mm | - | - | - |
| 1777842006 | 34.44° C | 30% | - | 0 mm | - | - | - |
| 1777838406 | 31.11° C | 36% | - | 0 mm | - | - | - |
| 1777834806 | 29.44° C | 37% | - | 0 mm | - | - | - |
| 1777831206 | 27.22° C | 40% | - | 0 mm | - | - | - |
| 1777827606 | 26.11° C | 44% | - | 0 mm | - | - | - |
| 1777824006 | 21.67° C | 55% | - | 0 mm | - | - | - |
| 1777820406 | 14.44° C | 69% | - | 0 mm | - | - | - |
| 1777816806 | 12.78° C | 74% | - | 0 mm | - | - | - |
| 1777813206 | 12.78° C | 78% | - | 0 mm | - | - | - |
* Rain latest hour (hover to see other rain measurements)
** Current wind speed in m/s (hover to see current wind gust speed)